Time;durP1;ratioP1;P1;durP2;ratioP2;P2;SDS_P1;SDS_P2;PMS_P1;PMS_P2;Temp;Humidity;BMP_temperature;BMP_pressure;BME280_temperature;BME280_humidity;BME280_pressure;Samples;Min_cycle;Max_cycle;Signal;HPM_P1;HPM_P2
2021/08/06 00:01:46;;;;;;;8.85;2.03;;;16.00;54.80;;;;;;5095879;27;20066;-86
2021/08/06 00:04:35;;;;;;;3.35;1.45;;;16.00;54.80;;;;;;5087583;27;20045;-85
2021/08/06 00:07:25;;;;;;;3.05;1.20;;;15.90;54.80;;;;;;5092907;27;20047;-85
2021/08/06 00:10:14;;;;;;;3.80;1.40;;;15.90;55.30;;;;;;5113254;27;20134;-85
2021/08/06 00:13:02;;;;;;;5.00;1.35;;;15.90;54.70;;;;;;5094553;27;20031;-85
2021/08/06 00:15:52;;;;;;;1.95;1.42;;;15.80;54.50;;;;;;5092623;27;20103;-85
2021/08/06 00:18:40;;;;;;;3.53;1.73;;;15.90;53.40;;;;;;5089544;27;20092;-85
2021/08/06 00:21:29;;;;;;;4.03;1.73;;;15.90;53.00;;;;;;5094108;27;20051;-85
2021/08/06 00:24:19;;;;;;;2.72;1.77;;;15.90;54.00;;;;;;5118724;27;20192;-85
2021/08/06 00:27:08;;;;;;;1.48;1.20;;;15.80;54.40;;;;;;5091046;27;20078;-86
2021/08/06 00:29:58;;;;;;;3.28;1.50;;;15.80;54.60;;;;;;5112747;27;20051;-85
2021/08/06 00:32:50;;;;;;;2.28;1.25;;;15.80;53.30;;;;;;5093435;27;20047;-85
2021/08/06 00:35:44;;;;;;;5.05;1.50;;;15.90;51.90;;;;;;5096847;27;20065;-84
2021/08/06 00:38:34;;;;;;;9.57;1.90;;;15.90;51.40;;;;;;5110713;27;20491;-85
2021/08/06 00:41:26;;;;;;;2.47;1.27;;;15.90;52.40;;;;;;5095145;27;20120;-85
2021/08/06 00:44:17;;;;;;;5.10;1.25;;;15.90;52.00;;;;;;5094986;27;20551;-85
2021/08/06 00:47:08;;;;;;;4.03;1.13;;;15.70;52.90;;;;;;5093041;27;20140;-84
2021/08/06 00:50:01;;;;;;;3.95;1.35;;;15.70;54.50;;;;;;5111048;27;20547;-85
2021/08/06 00:52:51;;;;;;;2.95;1.27;;;15.60;54.50;;;;;;5093605;27;20039;-85
2021/08/06 00:55:43;;;;;;;2.75;1.58;;;15.70;54.10;;;;;;5110352;27;20043;-84
2021/08/06 00:58:41;;;;;;;2.97;1.30;;;15.70;52.30;;;;;;5095107;27;20035;-84
2021/08/06 01:01:40;;;;;;;5.22;1.40;;;15.60;52.20;;;;;;5096610;27;20039;-85
2021/08/06 01:04:40;;;;;;;3.60;1.33;;;15.70;51.20;;;;;;5109286;27;20047;-85
2021/08/06 01:07:42;;;;;;;2.03;1.20;;;15.70;51.10;;;;;;5095647;27;20066;-85
2021/08/06 01:10:38;;;;;;;3.65;1.33;;;15.60;52.40;;;;;;5094276;27;20127;-85
2021/08/06 01:13:32;;;;;;;1.60;1.20;;;15.60;51.90;;;;;;5112682;27;20047;-86
2021/08/06 01:16:27;;;;;;;;;;;15.60;51.80;;;;;;5092722;27;20049;-84
2021/08/06 01:19:25;;;;;;;3.50;1.40;;;15.40;53.70;;;;;;5096816;27;19922;-85
2021/08/06 01:22:22;;;;;;;1.92;1.33;;;15.50;54.20;;;;;;5095089;27;20269;-84
2021/08/06 01:25:23;;;;;;;2.33;1.40;;;15.50;52.80;;;;;;5091838;27;20711;-85
2021/08/06 01:28:17;;;;;;;2.53;1.30;;;15.50;52.50;;;;;;5094080;27;20050;-85
2021/08/06 01:31:06;;;;;;;4.22;1.42;;;15.50;52.20;;;;;;5096118;27;20076;-85
2021/08/06 01:34:01;;;;;;;2.20;1.50;;;15.50;51.60;;;;;;5100154;27;20042;-84
2021/08/06 01:36:50;;;;;;;2.65;1.52;;;15.50;50.50;;;;;;5090300;27;20039;-85
2021/08/06 01:39:52;;;;;;;2.08;1.02;;;15.40;51.00;;;;;;5095855;27;20059;-85
2021/08/06 01:42:47;;;;;;;4.80;1.55;;;15.40;52.10;;;;;;5095467;27;20043;-84
2021/08/06 01:45:41;;;;;;;3.08;1.77;;;15.40;51.60;;;;;;5114648;27;20043;-85
2021/08/06 01:48:35;;;;;;;2.15;1.20;;;15.40;52.40;;;;;;5112950;27;20039;-84
2021/08/06 01:51:32;;;;;;;2.30;1.20;;;15.50;52.80;;;;;;5122105;27;20107;-84
2021/08/06 01:54:23;;;;;;;4.10;1.50;;;15.60;50.90;;;;;;5096954;27;20531;-84
2021/08/06 01:57:14;;;;;;;1.40;1.10;;;15.50;51.00;;;;;;5103429;27;20051;-84
2021/08/06 02:00:08;;;;;;;2.00;1.40;;;15.60;50.40;;;;;;5098716;27;20680;-85
2021/08/06 02:03:06;;;;;;;2.72;1.30;;;15.60;50.40;;;;;;5131821;27;20481;-84
2021/08/06 02:05:55;;;;;;;4.30;1.83;;;15.70;47.90;;;;;;5099724;27;20051;-85
2021/08/06 02:08:46;;;;;;;2.00;1.48;;;15.80;47.40;;;;;;5115471;27;20184;-85
2021/08/06 02:11:37;;;;;;;3.45;1.45;;;15.80;49.20;;;;;;5098054;27;20458;-85
2021/08/06 02:14:32;;;;;;;5.40;1.40;;;15.90;44.80;;;;;;5096665;27;20047;-85
2021/08/06 02:17:24;;;;;;;3.22;1.48;;;15.90;43.60;;;;;;5099747;27;20054;-85
2021/08/06 02:20:22;;;;;;;2.13;1.50;;;16.00;45.10;;;;;;5110222;27;20047;-85
2021/08/06 02:23:12;;;;;;;2.50;1.35;;;16.00;42.40;;;;;;5098712;27;20130;-85
2021/08/06 02:26:03;;;;;;;1.50;1.20;;;16.00;43.40;;;;;;5093211;27;20054;-85
2021/08/06 02:28:53;;;;;;;5.03;1.77;;;16.10;42.50;;;;;;5097463;27;20125;-85
2021/08/06 02:31:47;;;;;;;1.67;1.40;;;16.10;43.30;;;;;;5103095;27;20498;-85
2021/08/06 02:34:41;;;;;;;2.72;1.25;;;16.10;43.20;;;;;;5113954;27;20050;-85
2021/08/06 02:37:30;;;;;;;1.50;1.30;;;16.10;39.70;;;;;;5097690;27;20055;-85
2021/08/06 02:40:18;;;;;;;1.40;1.20;;;16.20;40.00;;;;;;5097653;27;20560;-84
2021/08/06 02:43:07;;;;;;;2.78;1.60;;;16.20;40.90;;;;;;5097710;27;20170;-85
2021/08/06 02:45:56;;;;;;;2.38;1.27;;;16.10;42.50;;;;;;5099159;27;20054;-85
2021/08/06 02:48:44;;;;;;;2.92;1.45;;;16.10;42.50;;;;;;5098811;27;20059;-84
2021/08/06 02:51:35;;;;;;;4.03;1.65;;;16.20;42.40;;;;;;5101711;27;20494;-85
2021/08/06 02:54:24;;;;;;;4.63;1.90;;;16.10;40.70;;;;;;5094565;27;20047;-84
2021/08/06 02:57:13;;;;;;;2.97;1.38;;;16.20;43.60;;;;;;5094435;27;20036;-86
2021/08/06 03:00:04;;;;;;;9.32;1.70;;;16.20;42.50;;;;;;5098653;27;20164;-85
2021/08/06 03:02:55;;;;;;;5.43;1.58;;;16.20;41.60;;;;;;5093002;27;20039;-84
2021/08/06 03:05:45;;;;;;;4.90;1.70;;;16.20;42.10;;;;;;5112024;27;20243;-85
2021/08/06 03:08:35;;;;;;;2.45;1.70;;;16.20;42.50;;;;;;5099142;27;20179;-84
2021/08/06 03:11:25;;;;;;;3.17;1.55;;;16.30;42.50;;;;;;5098114;27;20071;-84
2021/08/06 03:14:16;;;;;;;3.13;1.25;;;16.30;42.50;;;;;;5101107;27;20595;-84
2021/08/06 03:17:05;;;;;;;2.30;1.50;;;16.30;43.80;;;;;;5101119;27;20054;-84
2021/08/06 03:19:58;;;;;;;2.03;1.40;;;16.30;43.90;;;;;;5100368;27;20047;-84
2021/08/06 03:22:47;;;;;;;4.88;1.67;;;16.40;42.10;;;;;;5100115;27;20047;-84
2021/08/06 03:25:37;;;;;;;4.18;1.60;;;16.40;42.80;;;;;;5092105;27;20445;-84
2021/08/06 03:28:26;;;;;;;2.97;1.55;;;16.40;40.60;;;;;;5102877;27;20486;-83
2021/08/06 03:31:14;;;;;;;4.07;1.60;;;16.40;40.60;;;;;;5098736;27;20050;-84
2021/08/06 03:34:03;;;;;;;3.47;1.70;;;16.40;39.70;;;;;;5100498;27;20465;-84
2021/08/06 03:36:52;;;;;;;2.25;1.35;;;16.30;41.50;;;;;;5093761;27;20413;-84
2021/08/06 03:39:42;;;;;;;4.32;1.90;;;16.40;39.50;;;;;;5105341;27;20043;-85
2021/08/06 03:42:32;;;;;;;3.88;1.40;;;16.40;40.40;;;;;;5099861;27;20130;-84
2021/08/06 03:45:21;;;;;;;2.08;1.50;;;16.40;39.40;;;;;;5095203;27;20165;-84
2021/08/06 03:48:10;;;;;;;3.83;1.40;;;16.40;40.00;;;;;;5099812;27;20051;-85
2021/08/06 03:51:00;;;;;;;4.93;1.73;;;16.50;36.00;;;;;;5095483;27;20203;-85
2021/08/06 03:53:49;;;;;;;2.40;1.90;;;16.50;35.40;;;;;;5098428;27;20043;-85
2021/08/06 03:56:38;;;;;;;4.20;1.50;;;16.60;32.10;;;;;;5099387;27;20047;-84
2021/08/06 03:59:28;;;;;;;2.45;1.40;;;16.60;29.70;;;;;;5095123;27;20111;-84
2021/08/06 04:02:18;;;;;;;1.55;1.42;;;16.70;24.10;;;;;;5094052;27;20053;-84
2021/08/06 04:05:07;;;;;;;2.35;1.13;;;16.70;26.70;;;;;;5095191;27;20050;-84
2021/08/06 04:07:56;;;;;;;3.55;1.60;;;16.70;25.70;;;;;;5099697;27;20047;-84
2021/08/06 04:10:47;;;;;;;2.75;1.55;;;16.80;25.20;;;;;;5092620;27;20093;-84
2021/08/06 04:13:36;;;;;;;8.68;1.50;;;16.80;24.50;;;;;;5114370;27;20055;-84
2021/08/06 04:16:26;;;;;;;3.17;1.52;;;16.80;25.50;;;;;;5110054;27;20047;-84
2021/08/06 04:19:16;;;;;;;2.72;1.58;;;16.80;25.20;;;;;;5092546;27;20091;-84
2021/08/06 04:22:04;;;;;;;1.83;1.50;;;16.80;27.30;;;;;;5108053;27;20131;-83
2021/08/06 04:24:53;;;;;;;2.60;1.42;;;16.70;26.70;;;;;;5103083;27;20125;-84
2021/08/06 04:27:42;;;;;;;4.55;1.45;;;16.70;26.10;;;;;;5100032;27;20104;-85
2021/08/06 04:30:31;;;;;;;6.40;1.85;;;16.70;26.70;;;;;;5094801;27;20066;-84
2021/08/06 04:33:21;;;;;;;5.60;1.88;;;16.70;26.70;;;;;;5095389;27;20043;-84
2021/08/06 04:36:10;;;;;;;4.78;1.95;;;16.70;28.50;;;;;;5097928;27;20051;-84
2021/08/06 04:38:58;;;;;;;3.80;1.73;;;16.70;28.10;;;;;;5094136;27;20093;-85
2021/08/06 04:41:48;;;;;;;3.13;1.45;;;16.70;30.20;;;;;;5098007;27;20047;-84
2021/08/06 04:44:38;;;;;;;4.43;1.65;;;16.70;28.50;;;;;;5110318;27;20051;-84
2021/08/06 04:47:27;;;;;;;2.10;1.90;;;16.70;34.40;;;;;;5110297;27;20130;-83
2021/08/06 04:50:19;;;;;;;3.92;1.73;;;16.50;34.20;;;;;;5111420;27;20047;-83
2021/08/06 04:53:15;;;;;;;4.30;2.00;;;16.50;35.10;;;;;;5095259;27;20498;-84
2021/08/06 04:56:04;;;;;;;5.32;1.70;;;16.60;32.20;;;;;;5085716;27;20039;-84
2021/08/06 04:58:52;;;;;;;2.53;1.55;;;16.60;33.60;;;;;;5113932;27;20051;-85
2021/08/06 05:01:41;;;;;;;3.25;1.70;;;16.50;34.20;;;;;;5096376;27;20050;-84
2021/08/06 05:04:30;;;;;;;2.80;1.70;;;16.50;37.40;;;;;;5099542;27;20513;-84
2021/08/06 05:07:19;;;;;;;4.18;2.00;;;16.40;36.80;;;;;;5126665;27;20153;-85
2021/08/06 05:10:09;;;;;;;1.95;1.75;;;16.30;44.50;;;;;;5110356;27;20122;-84
2021/08/06 05:12:57;;;;;;;3.92;1.90;;;16.20;46.80;;;;;;5112902;27;20058;-84
2021/08/06 05:15:46;;;;;;;3.30;1.90;;;16.10;47.50;;;;;;5111144;27;20047;-84
2021/08/06 05:18:35;;;;;;;2.75;2.13;;;16.10;50.80;;;;;;5123329;27;20047;-84
2021/08/06 05:21:24;;;;;;;6.72;2.40;;;16.10;52.60;;;;;;5110594;27;20047;-86
2021/08/06 05:24:13;;;;;;;4.82;2.30;;;16.00;53.60;;;;;;5096646;27;20085;-85
2021/08/06 05:27:02;;;;;;;4.05;2.38;;;16.00;54.10;;;;;;5113752;27;20050;-84
2021/08/06 05:29:51;;;;;;;2.50;2.15;;;16.00;55.90;;;;;;5117684;27;20055;-85
2021/08/06 05:32:40;;;;;;;3.65;2.58;;;15.90;55.30;;;;;;5115486;27;20043;-84
2021/08/06 05:35:30;;;;;;;3.40;2.22;;;15.90;56.90;;;;;;5097259;27;20035;-85
2021/08/06 05:38:25;;;;;;;4.85;2.53;;;16.00;57.10;;;;;;5098891;27;20506;-86
2021/08/06 05:41:16;;;;;;;3.13;2.45;;;16.00;58.20;;;;;;5100471;27;20047;-83
2021/08/06 05:44:05;;;;;;;3.38;2.50;;;16.10;58.60;;;;;;5103589;27;20081;-86
2021/08/06 05:46:54;;;;;;;3.03;2.53;;;16.10;58.20;;;;;;5126287;27;20050;-85
2021/08/06 05:49:42;;;;;;;3.20;2.03;;;16.20;58.90;;;;;;5098490;27;20451;-85
2021/08/06 05:52:33;;;;;;;6.40;2.70;;;16.10;57.90;;;;;;5097945;27;20498;-85
2021/08/06 05:55:22;;;;;;;6.85;2.15;;;16.30;58.20;;;;;;5117793;27;20050;-86
2021/08/06 05:58:19;;;;;;;4.78;2.90;;;16.30;57.20;;;;;;5101424;27;20069;-86
2021/08/06 06:01:08;;;;;;;4.07;2.50;;;16.20;56.60;;;;;;5126715;27;20421;-85
2021/08/06 06:04:07;;;;;;;3.10;2.45;;;16.30;57.70;;;;;;5099278;27;20524;-85
2021/08/06 06:07:16;;;;;;;4.38;2.85;;;16.40;58.70;;;;;;5111099;27;20059;-86
2021/08/06 06:10:05;;;;;;;5.47;2.20;;;16.40;58.20;;;;;;5131512;27;20056;-84
2021/08/06 06:12:54;;;;;;;4.43;2.33;;;16.40;57.70;;;;;;5103369;27;20201;-86
2021/08/06 06:15:47;;;;;;;6.88;2.60;;;16.30;55.60;;;;;;5096512;27;20039;-86
2021/08/06 06:18:35;;;;;;;5.95;2.15;;;16.50;57.00;;;;;;5112387;27;20043;-86
2021/08/06 06:21:26;;;;;;;3.75;2.38;;;16.60;56.20;;;;;;5109069;27;20039;-84
2021/08/06 06:24:14;;;;;;;2.92;2.13;;;16.70;56.20;;;;;;5099696;27;20596;-84
2021/08/06 06:27:05;;;;;;;3.70;2.28;;;16.80;53.70;;;;;;5130092;27;20187;-86
2021/08/06 06:29:53;;;;;;;3.05;1.95;;;16.80;54.80;;;;;;5110709;27;20039;-85
2021/08/06 06:32:44;;;;;;;3.58;2.05;;;16.90;52.90;;;;;;5128257;27;20046;-85
2021/08/06 06:35:33;;;;;;;3.92;2.47;;;17.00;52.90;;;;;;5114421;27;20128;-85
2021/08/06 06:38:22;;;;;;;3.83;1.77;;;17.00;53.40;;;;;;5118608;27;20131;-84
2021/08/06 06:41:11;;;;;;;2.47;1.73;;;17.00;54.70;;;;;;5108243;27;20051;-85
2021/08/06 06:44:02;;;;;;;4.85;2.25;;;16.90;53.60;;;;;;5110200;27;20038;-84
2021/08/06 06:46:51;;;;;;;4.20;1.88;;;16.90;53.70;;;;;;5101056;27;20035;-86
2021/08/06 06:49:41;;;;;;;2.42;1.90;;;17.00;53.60;;;;;;5116512;27;20123;-84
2021/08/06 06:52:29;;;;;;;3.88;2.08;;;17.10;53.70;;;;;;5117356;27;20139;-84
2021/08/06 06:55:18;;;;;;;2.35;1.83;;;17.30;53.00;;;;;;5107115;27;20055;-85
2021/08/06 06:58:07;;;;;;;2.78;1.90;;;17.40;48.60;;;;;;5104630;27;20143;-85
2021/08/06 07:00:57;;;;;;;5.32;1.95;;;17.50;49.20;;;;;;5113417;27;20049;-85
2021/08/06 07:03:47;;;;;;;20.83;14.07;;;17.60;46.90;;;;;;5115341;27;20035;-85
2021/08/06 07:06:41;;;;;;;2.22;1.67;;;17.90;41.80;;;;;;5096135;27;20070;-85
2021/08/06 07:09:29;;;;;;;2.95;1.40;;;18.00;39.90;;;;;;5127796;27;20043;-85
2021/08/06 07:12:18;;;;;;;2.13;1.30;;;18.30;39.00;;;;;;5097582;27;20043;-86
2021/08/06 07:15:08;;;;;;;2.53;1.27;;;18.50;38.10;;;;;;5126610;27;20612;-87
2021/08/06 07:17:57;;;;;;;3.25;1.52;;;18.60;36.30;;;;;;5100110;27;20062;-88
2021/08/06 07:20:50;;;;;;;5.47;1.73;;;18.60;32.20;;;;;;5097974;27;20093;-86
2021/08/06 07:23:41;;;;;;;4.85;1.50;;;18.70;36.20;;;;;;5099854;27;20042;-83
2021/08/06 07:26:30;;;;;;;2.33;0.95;;;18.50;36.00;;;;;;5112475;27;20060;-87
2021/08/06 07:29:18;;;;;;;2.03;1.30;;;18.30;35.90;;;;;;5104191;27;20495;-86
2021/08/06 07:32:07;;;;;;;2.05;1.13;;;18.30;35.80;;;;;;5097076;27;20125;-85
2021/08/06 07:34:56;;;;;;;4.07;1.40;;;18.30;36.80;;;;;;5122608;27;20806;-86
2021/08/06 07:37:45;;;;;;;2.47;1.50;;;18.10;36.80;;;;;;5094087;27;20070;-86
2021/08/06 07:40:36;;;;;;;3.85;1.30;;;18.00;36.70;;;;;;5102974;27;20069;-85
2021/08/06 07:43:25;;;;;;;3.50;1.50;;;18.10;40.00;;;;;;5101275;27;20054;-84
2021/08/06 07:46:14;;;;;;;3.63;1.40;;;17.90;45.40;;;;;;5093405;27;20053;-85
2021/08/06 07:49:06;;;;;;;3.28;1.88;;;17.50;46.10;;;;;;5109851;27;20126;-83
2021/08/06 07:51:57;;;;;;;1.60;1.50;;;17.10;50.50;;;;;;5100980;27;20523;-83
2021/08/06 07:54:47;;;;;;;3.50;1.85;;;17.00;55.90;;;;;;5115444;27;20143;-84
2021/08/06 07:57:38;;;;;;;2.92;1.48;;;17.10;57.30;;;;;;5114475;27;20050;-84
2021/08/06 08:00:27;;;;;;;2.35;1.50;;;17.20;55.90;;;;;;5112492;27;20070;-84
2021/08/06 08:03:16;;;;;;;4.55;1.60;;;17.30;57.00;;;;;;5109073;27;20059;-83
2021/08/06 08:06:04;;;;;;;2.35;1.40;;;17.20;54.10;;;;;;5103797;27;20536;-83
2021/08/06 08:08:52;;;;;;;4.13;1.80;;;17.20;55.90;;;;;;5109948;27;20519;-83
2021/08/06 08:11:41;;;;;;;1.63;1.30;;;17.20;53.90;;;;;;5101096;27;20042;-83
2021/08/06 08:14:31;;;;;;;3.92;1.60;;;17.20;55.00;;;;;;5126013;27;20043;-83
2021/08/06 08:17:21;;;;;;;4.20;1.70;;;17.30;55.80;;;;;;5125168;27;20062;-83
2021/08/06 08:20:12;;;;;;;2.15;1.40;;;17.50;56.30;;;;;;5121325;27;20051;-82
2021/08/06 08:23:00;;;;;;;2.40;1.20;;;17.80;56.40;;;;;;5117130;27;20045;-84
2021/08/06 08:25:53;;;;;;;4.03;1.85;;;17.90;53.10;;;;;;5105439;27;20039;-85
2021/08/06 08:28:42;;;;;;;4.20;2.15;;;18.20;52.70;;;;;;5109784;27;20046;-84
2021/08/06 08:31:33;;;;;;;1.90;1.33;;;18.40;48.10;;;;;;5107444;27;20047;-84
2021/08/06 08:34:22;;;;;;;1.77;1.20;;;18.20;42.90;;;;;;5089807;27;20414;-85
2021/08/06 08:37:13;;;;;;;3.97;1.23;;;18.40;43.30;;;;;;5096252;27;20039;-84
2021/08/06 08:40:02;;;;;;;1.90;1.02;;;18.70;39.50;;;;;;5096623;27;20079;-85
2021/08/06 08:42:52;;;;;;;3.90;2.22;;;18.80;40.10;;;;;;5109712;27;20039;-84
2021/08/06 08:45:44;;;;;;;2.38;1.15;;;18.80;29.20;;;;;;5096980;27;20676;-84
2021/08/06 08:48:35;;;;;;;3.42;1.00;;;18.80;30.30;;;;;;5107418;27;20039;-83
2021/08/06 08:51:26;;;;;;;3.47;1.40;;;18.60;25.90;;;;;;5113199;27;20124;-83
2021/08/06 08:54:15;;;;;;;1.48;0.80;;;18.70;26.70;;;;;;5110474;27;20093;-85
2021/08/06 08:57:04;;;;;;;2.53;0.82;;;18.70;23.50;;;;;;5097760;27;20043;-86
2021/08/06 08:59:55;;;;;;;1.85;0.90;;;18.80;23.20;;;;;;5124756;27;20047;-85
2021/08/06 09:02:44;;;;;;;1.15;0.73;;;18.90;24.20;;;;;;5135728;27;20038;-86
2021/08/06 09:05:36;;;;;;;1.38;0.90;;;19.10;19.20;;;;;;5092593;27;20134;-85
2021/08/06 09:08:24;;;;;;;1.33;0.70;;;18.80;18.50;;;;;;5110142;27;20385;-86
2021/08/06 09:11:31;;;;;;;1.02;0.70;;;18.80;14.20;;;;;;5108768;27;20047;-85
2021/08/06 09:14:49;;;;;;;3.13;0.90;;;18.90;15.10;;;;;;5050337;27;20105;-86
2021/08/06 09:17:39;;;;;;;1.40;0.65;;;19.30;19.60;;;;;;5095111;27;20055;-86
2021/08/06 09:20:40;;;;;;;2.03;0.65;;;19.40;14.20;;;;;;5096526;27;20047;-87
2021/08/06 09:23:40;;;;;;;2.38;0.80;;;19.30;13.00;;;;;;5109865;27;20057;-84
2021/08/06 09:26:41;;;;;;;1.55;0.80;;;19.60;11.90;;;;;;5119075;27;20066;-86
2021/08/06 09:29:29;;;;;;;2.88;0.82;;;20.20;7.90;;;;;;5106547;27;20845;-86
2021/08/06 09:32:18;;;;;;;1.00;0.60;;;20.30;8.30;;;;;;5093513;27;20050;-87
2021/08/06 09:35:13;;;;;;;0.90;0.70;;;20.20;8.80;;;;;;5106472;27;20043;-87
2021/08/06 09:38:04;;;;;;;3.78;1.25;;;20.30;8.80;;;;;;5108874;27;20447;-87
2021/08/06 09:40:52;;;;;;;4.10;0.90;;;20.00;8.20;;;;;;5087442;27;20050;-87
2021/08/06 09:43:47;;;;;;;1.27;0.70;;;20.00;7.20;;;;;;5109792;27;20505;-86
2021/08/06 09:46:35;;;;;;;5.32;0.63;;;20.00;5.90;;;;;;5099583;27;20061;-86
2021/08/06 09:49:26;;;;;;;2.15;0.82;;;20.10;6.90;;;;;;5105694;27;20047;-87
2021/08/06 09:52:15;;;;;;;1.63;0.65;;;20.10;6.40;;;;;;5108874;27;20043;-86
2021/08/06 09:55:07;;;;;;;5.53;1.05;;;20.00;7.20;;;;;;5095707;27;20130;-87
2021/08/06 09:57:56;;;;;;;2.45;0.90;;;20.10;6.20;;;;;;5108069;27;20051;-87
2021/08/06 10:00:47;;;;;;;3.58;0.70;;;20.10;3.80;;;;;;5098470;27;20054;-86
2021/08/06 10:03:38;;;;;;;2.10;0.70;;;20.00;3.60;;;;;;5108347;27;20058;-88
2021/08/06 10:06:34;;;;;;;1.95;0.80;;;20.90;4.50;;;;;;5128537;27;20031;-86
2021/08/06 10:09:23;;;;;;;0.85;0.60;;;21.50;1.60;;;;;;5101582;27;20059;-87
2021/08/06 10:12:13;;;;;;;1.75;0.80;;;21.90;1.00;;;;;;5098828;27;20134;-87
2021/08/06 10:15:02;;;;;;;2.25;0.75;;;22.00;1.00;;;;;;5128972;27;20047;-86
2021/08/06 10:17:52;;;;;;;3.28;1.00;;;22.10;1.00;;;;;;5099764;27;20074;-86
2021/08/06 10:20:41;;;;;;;1.17;0.80;;;21.90;1.00;;;;;;5127686;27;20047;-86
2021/08/06 10:23:29;;;;;;;2.22;0.80;;;21.90;1.00;;;;;;5114578;27;20076;-87
2021/08/06 10:26:18;;;;;;;2.72;0.98;;;21.80;1.00;;;;;;5100499;27;20533;-87
2021/08/06 10:29:08;;;;;;;1.02;0.60;;;21.80;1.00;;;;;;5108802;27;20066;-86
2021/08/06 10:32:13;;;;;;;2.13;0.63;;;21.50;1.00;;;;;;5099186;27;20051;-86
2021/08/06 10:35:18;;;;;;;1.83;0.80;;;21.30;1.00;;;;;;5092884;27;20529;-86
2021/08/06 10:38:07;;;;;;;;;;;21.30;1.00;;;;;;5121745;27;20624;-87
2021/08/06 10:40:57;;;;;;;1.95;1.00;;;21.20;1.00;;;;;;5102029;27;19967;-85
2021/08/06 10:44:02;;;;;;;2.38;0.73;;;21.20;1.00;;;;;;5112245;27;20043;-86
2021/08/06 10:46:54;;;;;;;;;;;20.70;1.00;;;;;;5082709;27;20663;-86
2021/08/06 10:49:43;;;;;;;2.00;0.95;;;21.10;1.00;;;;;;5111542;27;19934;-85
2021/08/06 10:52:31;;;;;;;2.20;0.73;;;21.20;1.00;;;;;;5095875;27;20077;-87
2021/08/06 10:55:21;;;;;;;2.75;0.85;;;21.00;1.00;;;;;;5106358;27;20113;-86
2021/08/06 10:58:10;;;;;;;2.00;0.60;;;21.20;1.00;;;;;;5110691;27;20044;-86
2021/08/06 11:00:58;;;;;;;3.50;0.88;;;21.10;1.00;;;;;;5100864;27;20039;-85
2021/08/06 11:03:53;;;;;;;2.38;1.00;;;20.70;1.00;;;;;;5097070;27;20042;-84
2021/08/06 11:06:45;;;;;;;1.95;0.75;;;21.00;1.00;;;;;;5098272;27;20071;-85
2021/08/06 11:09:55;;;;;;;2.97;0.73;;;21.30;1.00;;;;;;5111405;27;20043;-86
2021/08/06 11:12:45;;;;;;;1.67;0.68;;;20.90;1.00;;;;;;5122931;27;20081;-86
2021/08/06 11:16:05;;;;;;;1.95;0.82;;;21.10;1.00;;;;;;5096540;27;20074;-84
2021/08/06 11:18:55;;;;;;;3.33;0.80;;;21.60;1.00;;;;;;5096599;27;20054;-85
2021/08/06 11:21:52;;;;;;;2.97;1.20;;;21.10;1.00;;;;;;5110991;27;20040;-85
2021/08/06 11:24:43;;;;;;;2.42;0.77;;;21.00;1.00;;;;;;5099552;27;20059;-85
2021/08/06 11:27:34;;;;;;;0.93;0.82;;;21.10;1.00;;;;;;5101931;27;20499;-85
2021/08/06 11:30:24;;;;;;;2.25;0.90;;;20.30;1.00;;;;;;5109023;27;20050;-84
2021/08/06 11:33:13;;;;;;;3.30;1.05;;;19.10;12.20;;;;;;5096935;27;20059;-83
2021/08/06 11:36:15;;;;;;;1.05;0.70;;;17.50;32.30;;;;;;5092096;27;20043;-84
2021/08/06 11:39:14;;;;;;;2.05;0.80;;;17.40;25.30;;;;;;5106906;27;20122;-83
2021/08/06 11:42:03;;;;;;;2.00;0.80;;;17.60;20.20;;;;;;5099358;27;20039;-84
2021/08/06 11:44:54;;;;;;;2.17;0.70;;;18.20;23.40;;;;;;5122230;27;20129;-83
2021/08/06 11:47:44;;;;;;;1.63;0.68;;;18.80;23.60;;;;;;5108442;27;20129;-83
2021/08/06 11:50:39;;;;;;;1.05;0.60;;;19.30;17.90;;;;;;5109977;27;20057;-83
2021/08/06 11:53:30;;;;;;;2.58;0.80;;;19.50;17.60;;;;;;5109957;27;20043;-82
2021/08/06 11:56:20;;;;;;;2.65;0.73;;;19.60;23.40;;;;;;5110746;27;20130;-82
2021/08/06 11:59:09;;;;;;;1.50;0.50;;;19.40;17.50;;;;;;5094940;27;20705;-83
2021/08/06 12:02:16;;;;;;;2.03;0.75;;;19.60;17.50;;;;;;5112962;27;20070;-83
2021/08/06 12:05:20;;;;;;;0.98;0.52;;;19.80;14.40;;;;;;5107077;27;20043;-83
2021/08/06 12:08:28;;;;;;;2.10;0.63;;;20.10;11.00;;;;;;5124950;27;20035;-84
2021/08/06 12:11:19;;;;;;;1.65;0.57;;;20.30;9.80;;;;;;5131601;27;20069;-84
2021/08/06 12:14:08;;;;;;;1.42;0.60;;;20.50;5.30;;;;;;5109612;27;20051;-84
2021/08/06 12:16:56;;;;;;;1.45;0.60;;;20.90;7.40;;;;;;5094558;27;20091;-85
2021/08/06 12:19:47;;;;;;;2.38;0.90;;;21.00;2.90;;;;;;5106641;27;20425;-85
2021/08/06 12:22:41;;;;;;;2.67;0.75;;;21.00;1.00;;;;;;5096088;27;20444;-86
2021/08/06 12:25:32;;;;;;;1.80;0.60;;;21.10;1.00;;;;;;5101763;27;20183;-85
2021/08/06 12:28:22;;;;;;;1.08;0.70;;;21.20;1.00;;;;;;5110916;27;20147;-85
2021/08/06 12:31:29;;;;;;;4.07;0.82;;;21.20;1.00;;;;;;5105657;27;20054;-87
2021/08/06 12:34:21;;;;;;;1.92;0.70;;;21.40;1.00;;;;;;5115593;27;20055;-87
2021/08/06 12:37:11;;;;;;;2.63;0.68;;;21.80;1.00;;;;;;5106773;27;20495;-86
2021/08/06 12:40:00;;;;;;;2.53;0.80;;;21.40;1.00;;;;;;5126515;27;20624;-87
2021/08/06 12:42:48;;;;;;;1.50;0.60;;;22.10;1.00;;;;;;5111857;27;20205;-86
2021/08/06 12:45:39;;;;;;;2.25;0.70;;;22.60;1.00;;;;;;5113116;27;20625;-85
2021/08/06 12:48:28;;;;;;;0.60;0.50;;;22.80;1.00;;;;;;5110468;27;20060;-85
2021/08/06 12:51:19;;;;;;;0.75;0.60;;;22.70;1.00;;;;;;5100923;27;20051;-86
2021/08/06 12:54:32;;;;;;;1.58;0.60;;;22.80;1.00;;;;;;5108279;27;20196;-84
2021/08/06 12:57:44;;;;;;;4.05;0.50;;;23.10;1.00;;;;;;5109578;27;20039;-85
2021/08/06 13:00:37;;;;;;;1.02;0.47;;;22.90;1.00;;;;;;5094431;27;20065;-84
2021/08/06 13:03:29;;;;;;;1.85;0.43;;;23.00;1.00;;;;;;5097304;27;20541;-85
2021/08/06 13:06:18;;;;;;;1.88;0.50;;;23.40;1.00;;;;;;5100722;27;20174;-85
2021/08/06 13:09:09;;;;;;;1.00;0.57;;;23.40;1.00;;;;;;5097538;27;20708;-85
2021/08/06 13:12:14;;;;;;;0.60;0.40;;;23.30;1.00;;;;;;5109086;27;20058;-84
2021/08/06 13:15:04;;;;;;;;;;;23.50;1.00;;;;;;5110685;27;20045;-85
2021/08/06 13:17:53;;;;;;;1.45;0.70;;;23.60;1.00;;;;;;5106246;27;20245;-83
2021/08/06 13:20:43;;;;;;;1.10;0.57;;;23.60;1.00;;;;;;5133428;27;20050;-85
2021/08/06 13:23:32;;;;;;;1.65;0.60;;;23.80;1.00;;;;;;5095625;27;20073;-85
2021/08/06 13:26:21;;;;;;;0.88;0.38;;;23.80;1.00;;;;;;5105608;27;20052;-85
2021/08/06 13:29:09;;;;;;;0.75;0.40;;;23.30;1.00;;;;;;5106819;27;20058;-84
2021/08/06 13:32:02;;;;;;;1.30;0.50;;;23.70;1.00;;;;;;5124801;27;20199;-84
2021/08/06 13:34:50;;;;;;;0.80;0.50;;;24.00;1.00;;;;;;5121795;27;20043;-85
2021/08/06 13:37:40;;;;;;;1.67;0.60;;;23.90;1.00;;;;;;5095642;27;20409;-85
2021/08/06 13:40:31;;;;;;;2.00;0.57;;;24.00;1.00;;;;;;5124873;27;20055;-85
2021/08/06 13:43:19;;;;;;;1.23;0.50;;;24.20;1.00;;;;;;5129527;27;20039;-84
2021/08/06 13:46:08;;;;;;;2.10;0.50;;;23.70;1.00;;;;;;5125901;27;20058;-85
2021/08/06 13:48:57;;;;;;;1.02;0.45;;;23.10;1.00;;;;;;5131756;27;20046;-84
2021/08/06 13:51:48;;;;;;;3.08;0.60;;;23.00;1.00;;;;;;5135287;27;20039;-84
2021/08/06 13:54:38;;;;;;;2.00;0.60;;;23.00;1.00;;;;;;5110837;27;20500;-84
2021/08/06 13:57:26;;;;;;;0.80;0.52;;;22.90;1.00;;;;;;5133530;27;20124;-85
2021/08/06 14:00:15;;;;;;;3.00;0.52;;;22.70;1.00;;;;;;5098639;27;20126;-84
2021/08/06 14:03:03;;;;;;;0.73;0.50;;;22.80;1.00;;;;;;5103626;27;20050;-82
2021/08/06 14:05:52;;;;;;;1.15;0.57;;;22.10;1.00;;;;;;5114915;27;20117;-85
2021/08/06 14:08:44;;;;;;;1.55;0.60;;;22.40;1.00;;;;;;5128956;27;20047;-85
2021/08/06 14:11:36;;;;;;;1.05;0.50;;;22.60;1.00;;;;;;5112674;27;20050;-84
2021/08/06 14:14:25;;;;;;;3.60;0.70;;;22.90;1.00;;;;;;5124785;27;20054;-84
2021/08/06 14:17:13;;;;;;;2.42;0.40;;;22.60;1.00;;;;;;5132361;27;20180;-83
2021/08/06 14:20:02;;;;;;;0.98;0.50;;;22.80;1.00;;;;;;5128581;27;20043;-84
2021/08/06 14:22:50;;;;;;;1.48;0.55;;;22.90;1.00;;;;;;5100893;27;20127;-84
2021/08/06 14:25:38;;;;;;;2.25;0.60;;;22.70;1.00;;;;;;5110267;27;20139;-84
2021/08/06 14:28:28;;;;;;;1.15;0.60;;;22.30;1.00;;;;;;5127607;27;20467;-85
2021/08/06 14:31:17;;;;;;;2.80;0.80;;;22.30;1.00;;;;;;5130808;27;20070;-84
2021/08/06 14:34:05;;;;;;;1.30;0.60;;;22.50;1.00;;;;;;5093559;27;20039;-84
2021/08/06 14:36:54;;;;;;;0.82;0.50;;;22.40;1.00;;;;;;5110541;27;20402;-85
2021/08/06 14:39:42;;;;;;;2.78;0.52;;;22.30;1.00;;;;;;5117680;27;20505;-86
2021/08/06 14:42:30;;;;;;;1.15;0.50;;;22.40;1.00;;;;;;5127818;27;20810;-85
2021/08/06 14:45:23;;;;;;;2.03;0.65;;;22.20;1.00;;;;;;5109144;27;20046;-85
2021/08/06 14:48:12;;;;;;;2.45;0.70;;;22.30;1.00;;;;;;5096644;27;20043;-86
2021/08/06 14:51:04;;;;;;;1.85;0.63;;;22.20;1.00;;;;;;5110493;27;20043;-84
2021/08/06 14:53:53;;;;;;;1.35;0.70;;;22.10;1.00;;;;;;5109274;27;20077;-85
2021/08/06 14:56:41;;;;;;;4.20;0.80;;;21.60;1.00;;;;;;5101486;27;20051;-84